Bennett, Iowa
Current Conditions -  °F | °C
As of 12:52 AM on Wednesday 22 Oct 2014 (Local Time) from KDVN Reporting Station
Clear Clear  
Wind Chill: 33°   Ceiling: Unl
Heat Index: 38°   Visibility: 10mi
Dew Point: 33°   Wind: 7mph
Humidity: 83%   Direction: 90°E
Pressure: 30.26"   Gusts: NA
Location:  41.74°N, 90.97°W
Report Text: KDVN 220552Z AUTO 09006KT 10SM CLR 03/01 A3026 RMK AO2 SLP252 T00330006 10089 20028 401440022 51004 TSNO
Loading
Personal Weather Stations






























Interactive Weather Map
Tropical Storm Tracking
New forecast layout! Learn more

10-Day Weather Forecast

Advertisements
Track Severe Weather on mobile